Springtown, AR

5:33 PM CDT on August 20, 2014 (GMT -0500)
Bentonville Municipal-Thaden | Change Station
CLOSE
Current Station
Airport
Location: Bentonville,
Elevation: 1296 ft
Nearby Weather Stations

Elev 1296 ft 36.34 °N, 94.22 °W | Updated 18 minutes ago

Clear
Clear
88 °F
Feels Like 86 °F
N
8
Wind Variable Wind from SW
Gusts 17 mph

Today
High -- | Low -- °F
--% Chance of Precip.
Yesterday
High -- | Low -- °F
Precip. -- in
6:39 AM 8:01 PM
Waning Crescent, 19% visible
Pressure 29.98 in
Visibility 10.0 miles
Clouds Clear
Heat Index 86 °F
Dew Point 57 °F
Humidity 35%
Rainfall 0.00 in
Snow Depth Not available.
UV 4 out of 12
Pollen 9.20 out of 12
Air Quality Not available.
Flu Activity Not available.
METAR KVBT 202215Z AUTO 23007G15KT 10SM CLR 31/14 A2998 RMK AO1

More Conditions Fewer Conditions

Pressure 29.98 in
Visibility 10.0 miles
Clouds Clear
Heat Index 86 °F
Dew Point 57 °F
Humidity 35%
Rainfall 0.00 in
Snow Depth Not available.
UV 4 out of 12
Pollen 9.20 out of 12
Air Quality Not available.
Flu Activity Not available.
METAR KVBT 202215Z AUTO 23007G15KT 10SM CLR 31/14 A2998 RMK AO1

More Conditions Fewer Conditions

Nowcast | as of 4:52 PM CDT on August 20, 2014

At 4:52 PM...National Weather Service Doppler radars indicated that the remaining isolated rain showers over far eastern Oklahoma and western Arkansas had dissipated. No further precipitation had developed. No additional showers or storms are expected this evening. This will be the last short term forecast.

×

10-Day Weather Forecast

Almanac

Astronomy

Aug. 20, 2014 Rise Set
Actual Time 6:39 AM CDT 8:01 PM CDT
Civil Twilight 6:12 AM CDT 8:28 PM CDT
Nautical Twilight 5:40 AM CDT 9:01 PM CDT
Astronomical Twilight 5:06 AM CDT 9:34 PM CDT
Moon 2:23 AM CDT 4:44 PM CDT
Length of Visible Light 14h 15m
Length of Day
13h 22m
Tomorrow will be 2m 4s shorter.
Waning Crescent, 19% of the Moon is Illuminated
Today
Waning Crescent
Aug 25
New
Sep 2
First Quarter
Sep 8
Full
Sep 15
Last Quarter

Today's Extremes

State Highs State Lows

Community

WunderPhotos

Upload Photos

1,745,780 photos uploaded!

Nearby

Snow Depth

Station Depth Elevation
No new snow has been reported.

Earthquake Activity

City Distance Mag. Time & Date
No recent earthquake activity has been reported nearby.
Minimum magnitude displayed is 2.5.

Coastal Water Temperatures

Place Temperature
No Stations Reporting

Nearby Weather Stations